MMLP/LAP METAR and TAF weather

Enter ICAO airport designator
Station Type Date Time Source
MMLP METAR 2022/06/27 04:43 UTC NOAA

MMLP 270443Z 00000KT 10SM SCT020 SCT120 BKN200 25/21 A2997 RMK 8/418


Station Type Date Time Source
MMLP Decoded METAR 2022/06/27 04:43 UTC NOAA

La Paz International Airport, Mexico (MMLP) 24-04N 110-22W
Jun 27, 2022 - 12:43 AM EDT / 2022.06.27 0443 UTC
Wind: Calm:0
Visibility: 10 mile(s):0
Sky conditions: mostly cloudy
Temperature: 77 F (25 C)
Dew Point: 69 F (21 C)
Relative Humidity: 78%
Pressure (altimeter): 29.97 in. Hg (1014 hPa)
ob: MMLP 270443Z 00000KT 10SM SCT020 SCT120 BKN200 25/21 A2997 RMK 8/418
cycle: 4

Station Type Date Time Source
MMLP TAF 2022/06/27 06:44 UTC NOAA

TAF MMLP 270336Z 2706/2806 32005KT P6SM SCT020 SCT120 BKN200
FM271800 24005KT P6SM SCT015 BKN120
FM280300 32005KT P6SM SCT020 SCT120 BKN200

Example: see airport list